createdAt,value
2022-08-23T00:00:13.180Z,4.30
2022-08-23T00:02:43.411Z,4.40
2022-08-23T00:05:12.868Z,5.57
2022-08-23T00:07:44.201Z,3.30
2022-08-23T00:10:15.712Z,4.57
2022-08-23T00:12:45.317Z,3.05
2022-08-23T00:15:16.870Z,4.05
2022-08-23T00:17:45.292Z,4.10
2022-08-23T00:20:16.947Z,4.35
2022-08-23T00:22:47.352Z,4.03
2022-08-23T00:25:16.394Z,3.53
2022-08-23T00:27:44.918Z,3.47
2022-08-23T00:30:14.704Z,2.63
2022-08-23T00:32:43.938Z,3.88
2022-08-23T00:35:26.648Z,3.88
2022-08-23T00:38:33.027Z,5.65
2022-08-23T00:40:48.632Z,4.75
2022-08-23T00:43:50.471Z,3.40
2022-08-23T00:46:45.175Z,3.28
2022-08-23T00:49:14.520Z,7.50
2022-08-23T00:51:53.059Z,3.47
2022-08-23T00:54:24.946Z,3.60
2022-08-23T00:56:53.915Z,4.80
2022-08-23T00:59:22.690Z,4.68
2022-08-23T01:01:51.398Z,2.60
2022-08-23T01:04:20.231Z,6.35
2022-08-23T01:06:53.165Z,5.55
2022-08-23T01:09:24.109Z,3.97
2022-08-23T01:11:55.790Z,6.70
2022-08-23T01:14:28.057Z,4.95
2022-08-23T01:17:00.186Z,5.45
2022-08-23T01:19:34.859Z,4.35
2022-08-23T01:22:09.336Z,3.72
2022-08-23T01:25:06.207Z,3.75
2022-08-23T01:27:28.054Z,4.13
2022-08-23T01:29:56.386Z,3.33
2022-08-23T01:32:25.681Z,5.30
2022-08-23T01:34:54.198Z,4.85
2022-08-23T01:37:23.190Z,5.82
2022-08-23T01:39:52.865Z,4.22
2022-08-23T01:42:21.310Z,4.80
2022-08-23T01:44:49.686Z,5.35
2022-08-23T01:47:18.427Z,4.38
2022-08-23T01:49:46.802Z,4.45
2022-08-23T01:52:15.438Z,3.85
2022-08-23T01:54:43.765Z,4.20
2022-08-23T01:57:13.457Z,3.63
2022-08-23T01:59:44.171Z,3.30
2022-08-23T02:02:12.556Z,6.60
2022-08-23T02:04:40.989Z,3.03
2022-08-23T02:07:09.435Z,4.00
2022-08-23T02:09:37.711Z,5.93
2022-08-23T02:12:06.691Z,4.85
2022-08-23T02:14:41.956Z,3.90
2022-08-23T02:17:10.831Z,3.78
2022-08-23T02:19:40.394Z,3.53
2022-08-23T02:22:09.498Z,5.85
2022-08-23T02:24:41.705Z,4.85
2022-08-23T02:27:10.303Z,4.55
2022-08-23T02:29:40.068Z,7.07
2022-08-23T02:32:09.704Z,3.85
2022-08-23T02:34:38.590Z,5.68
2022-08-23T02:37:07.542Z,4.25
2022-08-23T02:39:36.629Z,4.75
2022-08-23T02:42:07.512Z,7.78
2022-08-23T02:44:37.857Z,7.10
2022-08-23T02:47:09.176Z,6.18
2022-08-23T02:49:37.902Z,5.90
2022-08-23T02:52:07.618Z,4.72
2022-08-23T02:54:36.667Z,3.67
2022-08-23T02:57:05.502Z,3.80
2022-08-23T02:59:33.836Z,3.72
2022-08-23T03:02:02.509Z,5.75
2022-08-23T03:04:32.408Z,4.32
2022-08-23T03:07:00.843Z,3.90
2022-08-23T03:09:29.324Z,3.88
2022-08-23T03:11:57.748Z,4.03
2022-08-23T03:14:27.578Z,5.75
2022-08-23T03:16:58.302Z,5.40
2022-08-23T03:19:26.849Z,3.92
2022-08-23T03:21:56.587Z,4.65
2022-08-23T03:24:25.039Z,7.50
2022-08-23T03:26:53.396Z,4.72
2022-08-23T03:29:21.782Z,4.50
2022-08-23T03:31:51.652Z,8.07
2022-08-23T03:34:22.360Z,5.68
2022-08-23T03:36:50.675Z,5.45
2022-08-23T03:39:20.390Z,7.32
2022-08-23T03:41:49.066Z,6.90
2022-08-23T03:44:17.429Z,5.00
2022-08-23T03:46:45.822Z,6.93
2022-08-23T03:49:14.307Z,6.95
2022-08-23T03:51:42.651Z,6.47
2022-08-23T03:54:11.092Z,7.68
2022-08-23T03:56:52.375Z,9.73
2022-08-23T03:59:21.281Z,6.75
2022-08-23T04:01:49.745Z,5.78
2022-08-23T04:04:18.175Z,8.65
2022-08-23T04:06:47.043Z,5.35
2022-08-23T04:09:16.307Z,6.63
2022-08-23T04:11:46.041Z,5.80
2022-08-23T04:14:14.406Z,5.30
2022-08-23T04:16:44.431Z,5.30
2022-08-23T04:19:15.050Z,5.45
2022-08-23T04:21:45.480Z,6.93
2022-08-23T04:24:14.585Z,6.45
2022-08-23T04:26:43.553Z,7.10
2022-08-23T04:29:33.576Z,6.70
2022-08-23T04:32:05.471Z,6.60
2022-08-23T04:34:36.881Z,6.88
2022-08-23T04:37:09.159Z,6.28
2022-08-23T04:39:58.798Z,5.10
2022-08-23T04:42:26.645Z,4.25
2022-08-23T04:44:57.569Z,5.88
2022-08-23T04:47:26.046Z,7.10
2022-08-23T04:49:54.347Z,6.63
2022-08-23T04:52:22.679Z,7.70
2022-08-23T04:54:50.982Z,6.97
2022-08-23T04:57:19.350Z,7.13
2022-08-23T04:59:47.631Z,5.38
2022-08-23T05:02:17.254Z,7.45
2022-08-23T05:04:45.507Z,5.80
2022-08-23T05:07:15.558Z,10.25
2022-08-23T05:09:43.826Z,5.65
2022-08-23T05:12:12.085Z,6.75
2022-08-23T05:14:40.667Z,5.43
2022-08-23T05:17:12.591Z,3.75
2022-08-23T05:19:46.824Z,4.15
2022-08-23T05:22:15.682Z,5.85
2022-08-23T05:24:44.063Z,3.72
2022-08-23T05:27:13.766Z,4.97
2022-08-23T05:29:42.246Z,4.68
2022-08-23T05:32:10.807Z,5.60
2022-08-23T05:34:39.475Z,6.32
2022-08-23T05:37:09.172Z,4.57
2022-08-23T05:39:37.655Z,5.47
2022-08-23T05:42:06.653Z,5.47
2022-08-23T05:44:36.723Z,7.75
2022-08-23T05:47:10.178Z,5.45
2022-08-23T05:49:39.789Z,5.13
2022-08-23T05:52:12.949Z,7.88
2022-08-23T05:54:41.991Z,5.72
2022-08-23T05:57:11.572Z,6.00
2022-08-23T05:59:41.775Z,5.67
2022-08-23T06:02:10.595Z,6.50
2022-08-23T06:04:38.933Z,6.50
2022-08-23T06:07:07.188Z,6.60
2022-08-23T06:09:37.063Z,6.05
2022-08-23T06:12:05.632Z,9.15
2022-08-23T06:14:34.015Z,8.77
2022-08-23T06:17:02.505Z,7.43
2022-08-23T06:19:30.873Z,8.68
2022-08-23T06:21:59.231Z,7.00
2022-08-23T06:24:27.644Z,5.80
2022-08-23T06:26:57.318Z,6.22
2022-08-23T06:29:25.667Z,7.33
2022-08-23T06:31:54.617Z,7.20
2022-08-23T06:34:24.827Z,7.45
2022-08-23T06:36:55.247Z,6.47
2022-08-23T06:41:51.850Z,6.93
2022-08-23T06:44:22.414Z,11.10
2022-08-23T06:49:18.911Z,10.45
2022-08-23T06:51:51.287Z,9.55
2022-08-23T06:54:23.019Z,7.70
2022-08-23T06:56:55.049Z,8.48
2022-08-23T06:59:25.403Z,9.80
2022-08-23T07:01:55.424Z,7.20
2022-08-23T07:04:25.551Z,14.40
2022-08-23T07:06:53.932Z,7.18
2022-08-23T07:09:22.645Z,7.38
2022-08-23T07:11:51.375Z,7.63
2022-08-23T07:14:20.802Z,9.70
2022-08-23T07:16:52.563Z,7.38
2022-08-23T07:19:23.259Z,8.65
2022-08-23T07:21:58.268Z,8.10
2022-08-23T07:24:30.806Z,10.18
2022-08-23T07:27:03.911Z,11.38
2022-08-23T07:29:32.725Z,8.77
2022-08-23T07:32:02.973Z,6.80
2022-08-23T07:34:31.293Z,8.57
2022-08-23T07:37:00.499Z,8.43
2022-08-23T07:39:29.605Z,8.82
2022-08-23T07:42:00.193Z,8.32
2022-08-23T07:44:30.065Z,7.35
2022-08-23T07:46:59.319Z,4.90
2022-08-23T07:49:30.628Z,5.00
2022-08-23T07:52:00.021Z,6.93
2022-08-23T07:54:29.073Z,7.85
2022-08-23T07:56:57.306Z,5.85
2022-08-23T07:59:25.755Z,6.15
2022-08-23T08:01:54.083Z,7.22
2022-08-23T08:04:22.387Z,6.82
2022-08-23T08:07:16.941Z,3.78
2022-08-23T08:09:40.870Z,4.80
2022-08-23T08:12:11.143Z,4.63
2022-08-23T08:14:39.932Z,5.18
2022-08-23T08:17:08.310Z,8.30
2022-08-23T08:19:36.974Z,7.18
2022-08-23T08:22:06.789Z,4.72
2022-08-23T08:24:35.237Z,5.10
2022-08-23T08:27:03.521Z,4.97
2022-08-23T08:29:32.274Z,4.63
2022-08-23T08:32:00.599Z,4.75
2022-08-23T08:34:28.878Z,4.82
2022-08-23T08:36:58.933Z,5.60
2022-08-23T08:39:31.442Z,5.78
2022-08-23T08:42:09.148Z,5.47
2022-08-23T08:44:41.650Z,5.15
2022-08-23T08:47:13.741Z,5.68
2022-08-23T08:49:45.815Z,7.55
2022-08-23T08:52:18.819Z,5.90
2022-08-23T08:54:53.313Z,6.63
2022-08-23T08:57:27.492Z,5.50
2022-08-23T09:00:01.252Z,6.78
2022-08-23T09:02:33.858Z,7.22
2022-08-23T09:05:05.313Z,6.25
2022-08-23T09:07:44.456Z,5.75
2022-08-23T09:10:48.970Z,7.28
2022-08-23T09:13:35.850Z,7.68
2022-08-23T09:16:10.957Z,6.57
2022-08-23T09:18:39.322Z,6.10
2022-08-23T09:21:09.438Z,5.53
2022-08-23T09:23:42.419Z,5.55
2022-08-23T09:26:22.084Z,5.53
2022-08-23T09:28:51.389Z,8.13
2022-08-23T09:31:38.115Z,4.50
2022-08-23T09:34:07.564Z,3.97
2022-08-23T09:36:37.951Z,3.77
2022-08-23T09:39:08.949Z,6.25
2022-08-23T09:41:41.471Z,3.50
2022-08-23T09:44:13.791Z,3.47
2022-08-23T09:46:44.631Z,4.05
2022-08-23T09:49:25.916Z,4.50
2022-08-23T09:51:55.768Z,4.80
2022-08-23T09:54:30.575Z,5.57
2022-08-23T09:57:05.915Z,2.78
2022-08-23T09:59:40.719Z,3.45
2022-08-23T10:02:17.144Z,3.30
2022-08-23T10:04:47.706Z,4.95
2022-08-23T10:07:25.916Z,4.38
2022-08-23T10:09:54.751Z,3.75
2022-08-23T10:12:25.043Z,2.85
2022-08-23T10:14:54.777Z,4.97
2022-08-23T10:17:35.078Z,2.60
2022-08-23T10:22:44.643Z,6.38
2022-08-23T10:25:19.822Z,5.53
2022-08-23T10:28:11.848Z,5.35
2022-08-23T10:30:45.304Z,4.07
2022-08-23T10:33:18.814Z,6.30
2022-08-23T10:35:52.744Z,3.72
2022-08-23T10:38:36.509Z,2.85
2022-08-23T10:41:16.882Z,5.18
2022-08-23T10:43:54.649Z,3.03
2022-08-23T10:46:23.940Z,4.10
2022-08-23T10:48:56.088Z,5.37
2022-08-23T10:51:31.945Z,3.92
2022-08-23T10:54:04.182Z,4.47
2022-08-23T10:56:33.253Z,3.58
2022-08-23T10:59:09.575Z,4.22
2022-08-23T11:01:44.821Z,3.80
2022-08-23T11:04:18.752Z,2.92
2022-08-23T11:06:49.388Z,3.67
2022-08-23T11:10:04.969Z,3.03
2022-08-23T11:12:35.751Z,3.80
2022-08-23T11:15:13.746Z,2.83
2022-08-23T11:17:55.120Z,3.58
2022-08-23T11:21:00.915Z,6.25
2022-08-23T11:23:49.348Z,3.35
2022-08-23T11:27:06.924Z,2.67
2022-08-23T11:29:41.406Z,2.28
2022-08-23T11:32:39.239Z,2.97
2022-08-23T11:35:12.272Z,5.57
2022-08-23T11:37:57.184Z,3.35
2022-08-23T11:41:00.991Z,3.83
2022-08-23T11:43:35.828Z,4.80
2022-08-23T11:46:31.342Z,2.95
2022-08-23T11:49:23.736Z,3.50
2022-08-23T11:52:00.144Z,4.05
2022-08-23T11:54:39.443Z,2.33
2022-08-23T11:57:19.813Z,3.27
2022-08-23T12:00:02.512Z,3.20
2022-08-23T12:02:41.713Z,4.32
2022-08-23T12:05:33.414Z,3.67
2022-08-23T12:08:34.232Z,3.10
2022-08-23T12:11:06.562Z,5.28
2022-08-23T12:13:54.317Z,3.58
2022-08-23T12:16:38.319Z,3.85
2022-08-23T12:19:22.274Z,6.50
2022-08-23T12:21:56.060Z,6.88
2022-08-23T12:27:01.545Z,3.13
2022-08-23T12:29:36.887Z,3.80
2022-08-23T12:32:12.681Z,3.35
2022-08-23T12:34:48.819Z,4.35
2022-08-23T12:37:23.732Z,3.83
2022-08-23T12:39:56.851Z,2.88
2022-08-23T12:42:28.127Z,7.22
2022-08-23T12:45:05.949Z,3.80
2022-08-23T12:47:37.492Z,4.28
2022-08-23T12:50:17.708Z,3.65
2022-08-23T12:52:58.360Z,3.55
2022-08-23T12:55:31.916Z,2.40
2022-08-23T12:58:01.013Z,3.78
2022-08-23T13:00:33.889Z,3.85
2022-08-23T13:03:05.461Z,3.85
2022-08-23T13:05:40.617Z,2.83
2022-08-23T13:08:13.334Z,3.92
2022-08-23T13:10:43.234Z,2.92
2022-08-23T13:13:13.950Z,2.67
2022-08-23T13:15:48.689Z,2.53
2022-08-23T13:18:28.574Z,4.35
2022-08-23T13:21:19.374Z,3.83
2022-08-23T13:23:49.174Z,2.35
2022-08-23T13:26:29.216Z,2.85
2022-08-23T13:29:06.257Z,2.88
2022-08-23T13:31:59.308Z,3.35
2022-08-23T13:34:35.703Z,3.60
2022-08-23T13:37:05.634Z,3.22
2022-08-23T13:39:35.372Z,3.88
2022-08-23T13:42:04.005Z,4.82
2022-08-23T13:44:33.054Z,2.40
2022-08-23T13:47:01.373Z,2.67
2022-08-23T13:49:30.227Z,1.90
2022-08-23T13:52:41.665Z,2.15
2022-08-23T13:54:58.911Z,2.67
2022-08-23T13:57:30.181Z,4.00
2022-08-23T13:59:59.525Z,3.15
2022-08-23T14:02:29.460Z,3.20
2022-08-23T14:04:57.987Z,2.30
2022-08-23T14:07:26.366Z,3.17
2022-08-23T14:09:55.291Z,4.78
2022-08-23T14:12:27.883Z,3.83
2022-08-23T14:14:57.126Z,2.72
2022-08-23T14:17:25.771Z,3.63
2022-08-23T14:20:32.600Z,3.92
2022-08-23T14:22:42.359Z,3.78
2022-08-23T14:25:12.475Z,2.80
2022-08-23T14:30:13.899Z,2.58
2022-08-23T14:32:42.314Z,2.38
2022-08-23T14:35:11.107Z,3.63
2022-08-23T14:40:28.736Z,2.78
2022-08-23T14:42:58.727Z,7.17
2022-08-23T14:47:55.517Z,5.00
2022-08-23T14:50:23.969Z,4.25
2022-08-23T14:52:52.325Z,3.55
2022-08-23T14:55:24.740Z,2.70
2022-08-23T14:57:53.322Z,2.60
2022-08-23T15:00:23.669Z,3.58
2022-08-23T15:02:51.965Z,2.90
2022-08-23T15:05:20.537Z,4.32
2022-08-23T15:07:48.794Z,2.90
2022-08-23T15:15:55.348Z,5.63
2022-08-23T15:18:24.089Z,2.50
2022-08-23T15:20:52.614Z,4.07
2022-08-23T15:23:21.240Z,4.03
2022-08-23T15:25:49.976Z,3.88
2022-08-23T15:28:19.774Z,2.08
2022-08-23T15:30:49.389Z,3.72
2022-08-23T15:33:23.412Z,4.35
2022-08-23T15:35:55.531Z,4.68
2022-08-23T15:38:25.717Z,4.72
2022-08-23T15:43:23.567Z,2.15
2022-08-23T15:46:05.865Z,2.80
2022-08-23T15:48:37.972Z,2.55
2022-08-23T15:51:07.294Z,3.20
2022-08-23T15:53:35.728Z,2.33
2022-08-23T15:56:05.866Z,3.08
2022-08-23T15:58:34.508Z,3.22
2022-08-23T16:01:02.849Z,4.00
2022-08-23T16:03:31.467Z,4.72
2022-08-23T16:06:02.971Z,4.75
2022-08-23T16:08:34.881Z,3.65
2022-08-23T16:11:05.098Z,2.53
2022-08-23T16:13:33.428Z,3.28
2022-08-23T16:16:01.832Z,3.33
2022-08-23T16:18:30.235Z,3.13
2022-08-23T16:20:58.591Z,3.40
2022-08-23T16:23:29.104Z,2.45
2022-08-23T16:26:01.011Z,3.45
2022-08-23T16:28:29.921Z,4.00
2022-08-23T16:30:58.264Z,3.92
2022-08-23T16:33:26.697Z,2.35
2022-08-23T16:35:54.992Z,4.68
2022-08-23T16:38:23.328Z,5.60
2022-08-23T16:40:52.954Z,3.45
2022-08-23T16:43:21.695Z,4.03
2022-08-23T16:45:50.239Z,5.15
2022-08-23T16:48:18.649Z,3.53
2022-08-23T16:50:47.257Z,3.38
2022-08-23T16:53:16.872Z,3.60
2022-08-23T16:55:45.272Z,4.25
2022-08-23T16:58:16.125Z,3.33
2022-08-23T17:00:44.490Z,3.20
2022-08-23T17:03:15.132Z,4.80
2022-08-23T17:05:43.462Z,3.42
2022-08-23T17:08:11.930Z,3.83
2022-08-23T17:10:40.458Z,3.05
2022-08-23T17:13:09.740Z,4.32
2022-08-23T17:15:39.639Z,4.50
2022-08-23T17:18:08.465Z,6.18
2022-08-23T17:20:39.041Z,5.35
2022-08-23T17:23:08.012Z,4.03
2022-08-23T17:25:37.329Z,6.20
2022-08-23T17:28:06.606Z,5.15
2022-08-23T17:30:35.564Z,3.40
2022-08-23T17:33:05.674Z,3.00
2022-08-23T17:38:03.173Z,3.40
2022-08-23T17:40:34.563Z,3.92
2022-08-23T17:43:03.839Z,6.32
2022-08-23T17:45:35.013Z,4.50
2022-08-23T17:48:06.278Z,5.05
2022-08-23T17:50:34.721Z,4.45
2022-08-23T17:53:04.489Z,4.43
2022-08-23T17:55:35.470Z,7.00
2022-08-23T17:58:05.026Z,6.70
2022-08-23T18:00:33.960Z,7.55
2022-08-23T18:03:02.539Z,3.65
2022-08-23T18:05:34.165Z,7.80
2022-08-23T18:08:03.339Z,5.22
2022-08-23T18:10:31.873Z,3.28
2022-08-23T18:13:00.498Z,3.78
2022-08-23T18:15:30.054Z,4.80
2022-08-23T18:18:00.724Z,5.25
2022-08-23T18:20:29.828Z,4.00
2022-08-23T18:23:00.433Z,4.43
2022-08-23T18:25:29.118Z,6.43
2022-08-23T18:28:09.187Z,5.15
2022-08-23T18:30:39.812Z,5.72
2022-08-23T18:33:12.515Z,5.95
2022-08-23T18:35:41.569Z,4.97
2022-08-23T18:38:12.562Z,7.47
2022-08-23T18:40:46.162Z,3.78
2022-08-23T18:43:16.923Z,5.07
2022-08-23T18:45:45.684Z,5.55
2022-08-23T18:48:14.113Z,6.30
2022-08-23T18:50:43.137Z,4.95
2022-08-23T18:53:14.044Z,5.43
2022-08-23T18:55:43.355Z,5.38
2022-08-23T18:58:12.241Z,6.43
2022-08-23T19:00:41.812Z,4.20
2022-08-23T19:03:11.013Z,4.80
2022-08-23T19:05:41.912Z,4.72
2022-08-23T19:08:13.622Z,4.70
2022-08-23T19:10:44.316Z,5.30
2022-08-23T19:13:13.434Z,4.40
2022-08-23T19:15:42.209Z,5.38
2022-08-23T19:18:10.948Z,6.63
2022-08-23T19:20:39.739Z,6.45
2022-08-23T19:23:08.096Z,6.45
2022-08-23T19:25:38.630Z,7.28
2022-08-23T19:28:07.241Z,7.78
2022-08-23T19:30:35.968Z,7.72
2022-08-23T19:33:04.781Z,5.05
2022-08-23T19:35:33.352Z,7.78
2022-08-23T19:38:02.003Z,6.40
2022-08-23T19:40:30.671Z,5.13
2022-08-23T19:43:00.928Z,4.68
2022-08-23T19:45:32.382Z,6.80
2022-08-23T19:48:00.930Z,3.72
2022-08-23T19:50:29.350Z,6.30
2022-08-23T19:52:57.806Z,7.57
2022-08-23T19:55:27.398Z,5.05
2022-08-23T19:57:56.066Z,4.50
2022-08-23T20:00:27.237Z,5.35
2022-08-23T20:02:55.595Z,4.97
2022-08-23T20:05:23.909Z,5.32
2022-08-23T20:07:52.346Z,6.53
2022-08-23T20:10:20.933Z,4.45
2022-08-23T20:12:49.232Z,5.15
2022-08-23T20:15:17.568Z,6.47
2022-08-23T20:17:47.291Z,6.82
2022-08-23T20:20:15.683Z,7.75
2022-08-23T20:23:01.849Z,4.95
2022-08-23T20:25:31.439Z,6.07
2022-08-23T20:27:59.799Z,5.05
2022-08-23T20:30:28.145Z,6.18
2022-08-23T20:32:57.789Z,6.15
2022-08-23T20:35:26.064Z,6.47
2022-08-23T20:37:54.380Z,5.88
2022-08-23T20:40:25.784Z,10.88
2022-08-23T20:42:54.181Z,5.53
2022-08-23T20:45:22.540Z,6.82
2022-08-23T20:47:50.847Z,6.95
2022-08-23T20:50:20.821Z,6.90
2022-08-23T20:52:49.290Z,5.35
2022-08-23T20:55:17.733Z,8.02
2022-08-23T20:57:46.368Z,6.45
2022-08-23T21:00:15.461Z,7.90
2022-08-23T21:02:43.879Z,7.95
2022-08-23T21:05:12.178Z,7.28
2022-08-23T21:07:41.934Z,6.45
2022-08-23T21:10:10.804Z,6.10
2022-08-23T21:12:39.288Z,9.63
2022-08-23T21:15:10.929Z,8.80
2022-08-23T21:17:39.637Z,7.15
2022-08-23T21:20:09.957Z,6.13
2022-08-23T21:22:38.287Z,6.28
2022-08-23T21:25:08.892Z,6.13
2022-08-23T21:27:37.179Z,5.70
2022-08-23T21:30:06.463Z,7.82
2022-08-23T21:32:34.746Z,7.05
2022-08-23T21:35:03.407Z,9.98
2022-08-23T21:37:31.717Z,7.55
2022-08-23T21:40:00.137Z,7.55
2022-08-23T21:42:30.581Z,7.45
2022-08-23T21:44:58.991Z,12.00
2022-08-23T21:47:28.113Z,7.35
2022-08-23T21:49:56.535Z,8.00
2022-08-23T21:52:24.938Z,6.07
2022-08-23T21:54:53.379Z,8.55
2022-08-23T21:57:21.717Z,7.35
2022-08-23T21:59:51.444Z,7.70
2022-08-23T22:02:19.757Z,7.22
2022-08-23T22:04:48.327Z,7.03
2022-08-23T22:07:16.689Z,7.72
2022-08-23T22:09:44.969Z,7.32
2022-08-23T22:12:13.280Z,8.90
2022-08-23T22:14:41.627Z,12.73
2022-08-23T22:17:11.648Z,8.10
2022-08-23T22:19:40.059Z,8.30
2022-08-23T22:22:08.362Z,8.95
2022-08-23T22:24:36.646Z,8.80
2022-08-23T22:27:05.279Z,10.90
2022-08-23T22:29:33.557Z,7.22
2022-08-23T22:32:02.736Z,6.90
2022-08-23T22:34:32.371Z,5.70
2022-08-23T22:37:00.694Z,8.23
2022-08-23T22:39:29.027Z,9.40
2022-08-23T22:41:57.357Z,6.95
2022-08-23T22:44:25.719Z,8.02
2022-08-23T22:46:54.064Z,8.38
2022-08-23T22:49:22.406Z,7.82
2022-08-23T22:51:56.087Z,8.10
2022-08-23T22:54:25.019Z,7.93
2022-08-23T22:56:54.436Z,7.85
2022-08-23T22:59:27.484Z,6.75
2022-08-23T23:01:57.873Z,8.43
2022-08-23T23:04:27.058Z,9.40
2022-08-23T23:06:57.589Z,10.57
2022-08-23T23:09:26.319Z,8.50
2022-08-23T23:11:55.467Z,6.65
2022-08-23T23:14:23.946Z,8.90
2022-08-23T23:16:53.233Z,7.43
2022-08-23T23:19:39.297Z,7.97
2022-08-23T23:22:09.801Z,10.13
2022-08-23T23:27:07.673Z,10.75
2022-08-23T23:29:36.566Z,8.80
2022-08-23T23:32:05.659Z,7.68
2022-08-23T23:34:34.607Z,7.13
2022-08-23T23:37:02.909Z,7.40
2022-08-23T23:39:32.707Z,9.00
2022-08-23T23:42:01.096Z,9.43
2022-08-23T23:44:31.000Z,8.52
2022-08-23T23:47:01.243Z,8.30
2022-08-23T23:49:33.163Z,10.50
2022-08-23T23:52:03.683Z,10.25
2022-08-23T23:54:35.537Z,8.18
2022-08-23T23:57:04.428Z,10.48
2022-08-23T23:59:34.210Z,11.45
